Oceanport, NJ (07757)

09:10 PM EDT die 28o August, anno 2014 (GMT -0400)
Oceanport | Change Station
CLOSE
Current Station
Personal Weather Stations
Location: Oceanport, NJ
Elevation: 20 ft
Nearby Weather Stations
Active Advisory: Coastal Hazard Statement

Elev 20 ft 40.31 °N, 74.03 °W | Updated 14 seconds ago

Serena
Serena
71.6 °F
Feels Like 77 °F
N
4.9
Ventus Variabilis Ventus from Magis Zephyrus quam Aquilo
Gusts 6.0 mph

Hodie
High -- | Low -- °F
--% Chance of Precip.
Yesterday
High -- | Low -- °F
Precip. -- in
6:19 AM 7:34 PM
Waxing Crescent, 11% visible
Pressio 30.00 in
Visibilitas 10.0 milia passuum
Clouds Serena
Index Caloris 77 °F
Frigus in quo Ros apparet 54 °F
Umor 54%
Rainfall 0.00 in
Snow Depth Not available.
UV 0 out of 12
Pollen 9.50 out of 12
Air Quality Not available.
Flu Activity Not available.
METAR KBLM 290055Z AUTO 32006KT 10SM CLR 21/10 A3000 RMK AO1

More Conditions Fewer Conditions

Pressio 30.00 in
Visibilitas 10.0 milia passuum
Clouds Serena
Index Caloris 77 °F
Frigus in quo Ros apparet 54 °F
Umor 54%
Rainfall 0.00 in
Snow Depth Not available.
UV 0 out of 12
Pollen 9.50 out of 12
Air Quality Not available.
Flu Activity Not available.
METAR KBLM 290055Z AUTO 32006KT 10SM CLR 21/10 A3000 RMK AO1

More Conditions Fewer Conditions

10-Day Weather Forecast

Almanac

Astronomy

Aug. 28, 2014 Rise Set
Actual Time 6:19 AM EDT 7:34 PM EDT
Civil Twilight 5:51 AM EDT 8:02 PM EDT
Nautical Twilight 5:17 AM EDT 8:35 PM EDT
Astronomical Twilight 4:42 AM EDT 9:11 PM EDT
Moon 9:10 AM EDT (8/28) 8:56 PM EDT (8/28)
Length Of Visible Light 14h 10m
Length of Day
13h 14m
Tomorrow will be 2m 32s shorter.
Waxing Crescent, 11% of the Moon is Illuminated
Hodie
Waxing Crescent
Sep 2
First Quarter
Sep 8
Full
Sep 15
Last Quarter
Sep 24
New

Today's Extremes

State Highs State Lows

Community

WunderPhotos

Upload Photos

1,748,126 photos uploaded!

Nearby

Snow Depth

Station Depth Elevation
No new snow has been reported.

Earthquake Activity

City Distance Mag. Time & Date
No recent earthquake activity has been reported nearby.
Minimum magnitude displayed is 2.5.

Coastal Water Temperatures

Locus Calor
Sandy Hook, NJ 77.0 °F
Bergen Point West Reach, NJ 75.0 °F
The Battery, NY 75.0 °F

Nearby Weather Stations